Archival Weather

Chicago O'Hare International

Chicago, Illinois (KORD)

Report from: Monday, February 28, 2022 12:51 PM CST
Current time: Friday, July 1, 2022 4:01 PM CDT

Current weather
Weather history
Weather forecast

Temperature10.6°C (51.1°F)
Dew point-5.0°C (23.0°F)
Winds 16 kts (8.2 m/s, 18.4 mph) Southwest (230°)
Wind gusts 25 kts (12.9 m/s, 28.8 mph)
Peak wind 27 kts (13.9 m/s, 31.1 mph) South-Southwest (210°) at 12:39
Visibility10 mi. (16.1 km)
Clouds Few clouds 10,000 ft. (3,048 m)
Ceiling: Broken clouds 25,000 ft. (7,620 m)
Altimeter29.98 in.Hg (1015 mB)
Relative humidity33 %
Density altitude-523 ft. (-159 m)
Sea-level pressure101.6 kPa (1016 mB, 29.99 in.Hg)
Remarks System requires maintenance
Automated weather observing station with precipitation discriminator
Flight conditions Visual Meteorological Conditions
Raw dataKORD 281851Z 23016G25KT 10SM FEW100 BKN250 11/M05 A2998 RMK AO2 PK WND 21027/1839 SLP157 T01061050 $
An unhandled exception has occurred. See browser dev tools for details. Reload 🗙